createdAt,value
2018-04-02T00:01:33.000Z,95443
2018-04-02T00:04:02.385Z,95442
2018-04-02T00:06:31.476Z,95441
2018-04-02T00:09:00.536Z,95437
2018-04-02T00:11:29.558Z,95432
2018-04-02T00:13:58.688Z,95441
2018-04-02T00:16:27.715Z,95435
2018-04-02T00:18:57.526Z,95434
2018-04-02T00:21:26.601Z,95439
2018-04-02T00:23:56.427Z,95430
2018-04-02T00:26:25.714Z,95432
2018-04-02T00:28:55.536Z,95428
2018-04-02T00:31:24.600Z,95435
2018-04-02T00:33:53.664Z,95426
2018-04-02T00:36:22.911Z,95444
2018-04-02T00:38:52.234Z,95428
2018-04-02T00:41:21.262Z,95422
2018-04-02T00:43:50.340Z,95423
2018-04-02T00:46:19.355Z,95426
2018-04-02T00:48:48.406Z,95424
2018-04-02T00:51:17.459Z,95421
2018-04-02T00:53:46.472Z,95418
2018-04-02T00:56:16.248Z,95409
2018-04-02T00:58:45.327Z,95415
2018-04-02T01:01:14.343Z,95420
2018-04-02T01:03:43.355Z,95419
2018-04-02T01:06:14.077Z,95421
2018-04-02T01:08:43.094Z,95420
2018-04-02T01:11:12.138Z,95420
2018-04-02T01:13:41.468Z,95412
2018-04-02T01:16:10.470Z,95412
2018-04-02T01:18:40.274Z,95419
2018-04-02T01:21:10.044Z,95413
2018-04-02T01:23:39.082Z,95416
2018-04-02T01:26:08.889Z,95413
2018-04-02T01:28:37.953Z,95420
2018-04-02T01:31:06.997Z,95409
2018-04-02T01:33:36.007Z,95413
2018-04-02T01:36:05.061Z,95411
2018-04-02T01:38:34.827Z,95413
2018-04-02T01:41:03.861Z,95408
2018-04-02T01:43:33.622Z,95418
2018-04-02T01:46:02.677Z,95411
2018-04-02T01:48:31.681Z,95410
2018-04-02T01:51:00.706Z,95405
2018-04-02T01:53:29.787Z,95405
2018-04-02T01:55:58.841Z,95395
2018-04-02T01:58:28.614Z,95397
2018-04-02T02:00:57.663Z,95408
2018-04-02T02:03:26.689Z,95400
2018-04-02T02:05:55.744Z,95402
2018-04-02T02:08:24.754Z,95399
2018-04-02T02:10:53.807Z,95400
2018-04-02T02:13:23.579Z,95398
2018-04-02T02:15:52.631Z,95399
2018-04-02T02:18:21.631Z,95392
2018-04-02T02:20:50.751Z,95400
2018-04-02T02:23:19.765Z,95391
2018-04-02T02:25:48.822Z,95390
2018-04-02T02:28:17.822Z,95380
2018-04-02T02:30:46.818Z,95382
2018-04-02T02:33:15.875Z,95382
2018-04-02T02:35:45.639Z,95377
2018-04-02T02:38:14.678Z,95372
2018-04-02T02:40:43.688Z,95379
2018-04-02T02:43:12.716Z,95387
2018-04-02T02:45:41.735Z,95379
2018-04-02T02:48:11.524Z,95372
2018-04-02T02:50:40.529Z,95373
2018-04-02T02:53:09.587Z,95363
2018-04-02T02:55:38.585Z,95363
2018-04-02T02:58:07.636Z,95366
2018-04-02T03:00:36.641Z,95367
2018-04-02T03:03:05.699Z,95369
2018-04-02T03:05:34.698Z,95368
2018-04-02T03:08:04.502Z,95383
2018-04-02T03:10:33.506Z,95372
2018-04-02T03:13:03.341Z,95365
2018-04-02T03:15:32.338Z,95367
2018-04-02T03:18:01.334Z,95363
2018-04-02T03:20:30.372Z,95370
2018-04-02T03:22:59.362Z,95376
2018-04-02T03:25:28.398Z,95375
2018-04-02T03:27:57.413Z,95371
2018-04-02T03:30:26.506Z,95379
2018-04-02T03:32:55.522Z,95374
2018-04-02T03:35:24.561Z,95365
2018-04-02T03:37:53.566Z,95369
2018-04-02T03:40:22.604Z,95372
2018-04-02T03:42:51.598Z,95374
2018-04-02T03:45:20.642Z,95374
2018-04-02T03:47:49.678Z,95379
2018-04-02T03:50:18.714Z,95364
2018-04-02T03:52:48.483Z,95374
2018-04-02T03:55:17.906Z,95364
2018-04-02T03:57:46.905Z,95366
2018-04-02T04:00:16.730Z,95378
2018-04-02T04:02:45.732Z,95375
2018-04-02T04:05:14.731Z,95371
2018-04-02T04:07:43.762Z,95365
2018-04-02T04:10:12.769Z,95370
2018-04-02T04:12:41.827Z,95368
2018-04-02T04:15:10.830Z,95368
2018-04-02T04:17:39.831Z,95368
2018-04-02T04:20:08.856Z,95368
2018-04-02T04:22:38.634Z,95363
2018-04-02T04:25:07.635Z,95365
2018-04-02T04:27:36.691Z,95363
2018-04-02T04:30:05.699Z,95364
2018-04-02T04:32:34.703Z,95379
2018-04-02T04:35:03.753Z,95384
2018-04-02T04:37:32.802Z,95368
2018-04-02T04:40:01.802Z,95367
2018-04-02T04:42:31.635Z,95371
2018-04-02T04:45:01.395Z,95367
2018-04-02T04:47:30.406Z,95373
2018-04-02T04:49:59.445Z,95364
2018-04-02T04:52:28.454Z,95385
2018-04-02T04:54:57.454Z,95377
2018-04-02T04:57:26.507Z,95366
2018-04-02T04:59:55.550Z,95370
2018-04-02T05:02:24.549Z,95369
2018-04-02T05:04:53.604Z,95368
2018-04-02T05:07:22.606Z,95379
2018-04-02T05:09:51.650Z,95376
2018-04-02T05:12:21.455Z,95369
2018-04-02T05:14:50.512Z,95370
2018-04-02T05:17:19.745Z,95370
2018-04-02T05:19:48.794Z,95237
2018-04-02T05:22:17.789Z,95363
2018-04-02T05:24:46.841Z,95372
2018-04-02T05:27:16.606Z,95362
2018-04-02T05:29:45.659Z,95366
2018-04-02T05:32:14.686Z,95368
2018-04-02T05:34:43.713Z,95357
2018-04-02T05:37:13.483Z,95360
2018-04-02T05:39:42.528Z,95353
2018-04-02T05:42:11.529Z,95364
2018-04-02T05:44:40.570Z,95368
2018-04-02T05:47:09.618Z,95367
2018-04-02T05:49:38.651Z,95365
2018-04-02T05:52:07.699Z,95364
2018-04-02T05:54:37.460Z,95360
2018-04-02T05:57:06.515Z,95361
2018-04-02T05:59:35.573Z,95365
2018-04-02T06:02:04.586Z,95217
2018-04-02T06:04:34.409Z,95354
2018-04-02T06:07:03.426Z,95355
2018-04-02T06:09:33.509Z,95345
2018-04-02T06:12:02.521Z,95355
2018-04-02T06:14:31.526Z,95350
2018-04-02T06:17:00.567Z,95340
2018-04-02T06:19:29.577Z,95344
2018-04-02T06:21:59.389Z,95350
2018-04-02T06:24:28.399Z,95338
2018-04-02T06:26:57.435Z,95332
2018-04-02T06:29:26.462Z,95337
2018-04-02T06:31:56.260Z,95336
2018-04-02T06:34:25.279Z,95324
2018-04-02T06:36:54.390Z,95331
2018-04-02T06:39:23.335Z,95325
2018-04-02T06:41:52.390Z,95315
2018-04-02T06:44:21.409Z,95209
2018-04-02T06:46:50.422Z,95321
2018-04-02T06:49:19.454Z,95312
2018-04-02T06:51:48.452Z,95326
2018-04-02T06:54:17.514Z,95305
2018-04-02T06:56:47.348Z,95314
2018-04-02T06:59:16.346Z,95310
2018-04-02T07:01:45.402Z,95316
2018-04-02T07:04:15.188Z,95302
2018-04-02T07:06:44.328Z,95313
2018-04-02T07:09:13.324Z,95311
2018-04-02T07:11:42.333Z,95310
2018-04-02T07:14:11.391Z,95317
2018-04-02T07:16:40.416Z,95308
2018-04-02T07:19:09.533Z,95294
2018-04-02T07:21:38.591Z,95304
2018-04-02T07:24:07.653Z,95301
2018-04-02T07:26:36.672Z,95296
2018-04-02T07:29:06.590Z,95301
2018-04-02T07:31:35.591Z,95299
2018-04-02T07:34:04.636Z,95298
2018-04-02T07:36:33.666Z,95297
2018-04-02T07:39:02.722Z,95289
2018-04-02T07:41:31.731Z,95280
2018-04-02T07:44:00.798Z,95286
2018-04-02T07:46:30.682Z,95291
2018-04-02T07:49:01.205Z,95279
2018-04-02T07:51:30.228Z,95282
2018-04-02T07:53:59.257Z,95272
2018-04-02T07:56:28.320Z,95278
2018-04-02T07:58:57.398Z,95267
2018-04-02T08:01:27.254Z,95270
2018-04-02T08:03:56.390Z,95272
2018-04-02T08:06:25.405Z,95271
2018-04-02T08:08:54.459Z,95251
2018-04-02T08:11:23.487Z,95250
2018-04-02T08:13:52.539Z,95256
2018-04-02T08:16:21.557Z,95251
2018-04-02T08:18:50.574Z,95183
2018-04-02T08:21:19.696Z,95242
2018-04-02T08:23:48.674Z,95248
2018-04-02T08:26:17.697Z,95246
2018-04-02T08:28:47.534Z,95248
2018-04-02T08:31:16.539Z,95249
2018-04-02T08:33:45.565Z,95247
2018-04-02T08:36:14.627Z,95182
2018-04-02T08:38:43.673Z,95246
2018-04-02T08:41:12.760Z,95244
2018-04-02T08:43:41.772Z,95243
2018-04-02T08:46:11.545Z,95236
2018-04-02T08:48:40.602Z,95244
2018-04-02T08:51:09.614Z,95260
2018-04-02T08:53:38.645Z,95269
2018-04-02T08:56:07.714Z,95263
2018-04-02T08:58:36.738Z,95257
2018-04-02T09:01:05.814Z,95274
2018-04-02T09:03:34.833Z,95256
2018-04-02T09:06:03.876Z,95261
2018-04-02T09:08:32.908Z,95252
2018-04-02T09:11:01.926Z,95243
2018-04-02T09:13:31.019Z,95242
2018-04-02T09:16:00.032Z,95243
2018-04-02T09:18:29.050Z,95240
2018-04-02T09:20:58.090Z,95231
2018-04-02T09:23:27.112Z,95230
2018-04-02T09:25:56.129Z,95227
2018-04-02T09:28:25.182Z,95230
2018-04-02T09:30:54.200Z,95220
2018-04-02T09:33:23.257Z,95207
2018-04-02T09:35:52.277Z,95209
2018-04-02T09:38:21.333Z,95203
2018-04-02T09:40:50.350Z,95197
2018-04-02T09:43:20.149Z,95207
2018-04-02T09:45:49.169Z,95197
2018-04-02T09:48:18.990Z,95202
2018-04-02T09:50:47.993Z,95193
2018-04-02T09:53:17.000Z,95186
2018-04-02T09:55:49.005Z,95097
2018-04-02T09:58:21.273Z,95178
2018-04-02T10:00:50.356Z,95177
2018-04-02T10:03:19.390Z,95170
2018-04-02T10:05:49.250Z,95164
2018-04-02T10:08:18.350Z,95172
2018-04-02T10:10:47.446Z,95167
2018-04-02T10:13:16.466Z,95162
2018-04-02T10:15:45.563Z,95159
2018-04-02T10:18:15.493Z,95161
2018-04-02T10:20:46.589Z,95170
2018-04-02T10:23:15.658Z,95165
2018-04-02T10:25:44.710Z,95165
2018-04-02T10:28:15.623Z,95157
2018-04-02T10:30:44.691Z,95149
2018-04-02T10:33:13.673Z,95164
2018-04-02T10:35:42.989Z,95017
2018-04-02T10:38:12.423Z,95153
2018-04-02T10:40:43.373Z,95155
2018-04-02T10:43:13.725Z,95153
2018-04-02T10:45:42.971Z,95142
2018-04-02T10:48:11.987Z,95157
2018-04-02T10:50:41.004Z,95138
2018-04-02T10:53:12.344Z,95219
2018-04-02T10:55:42.552Z,95133
2018-04-02T10:58:11.862Z,95131
2018-04-02T11:00:41.336Z,95132
2018-04-02T11:03:10.488Z,95131
2018-04-02T11:05:39.587Z,95114
2018-04-02T11:08:08.653Z,95124
2018-04-02T11:10:37.679Z,95117
2018-04-02T11:13:06.694Z,95137
2018-04-02T11:15:35.780Z,95111
2018-04-02T11:18:04.819Z,95111
2018-04-02T11:20:34.638Z,95096
2018-04-02T11:23:03.737Z,95093
2018-04-02T11:25:32.866Z,95100
2018-04-02T11:28:01.896Z,95091
2018-04-02T11:30:30.965Z,95093
2018-04-02T11:33:00.023Z,95081
2018-04-02T11:35:29.823Z,95083
2018-04-02T11:37:58.938Z,95078
2018-04-02T11:40:28.726Z,95080
2018-04-02T11:42:57.881Z,95080
2018-04-02T11:45:26.884Z,95086
2018-04-02T11:47:55.970Z,95080
2018-04-02T11:50:25.005Z,95079
2018-04-02T11:52:54.025Z,95073
2018-04-02T11:55:23.090Z,95061
2018-04-02T11:57:52.177Z,95049
2018-04-02T12:00:21.252Z,95052
2018-04-02T12:02:50.286Z,95062
2018-04-02T12:05:19.367Z,95048
2018-04-02T12:07:48.826Z,95065
2018-04-02T12:10:18.770Z,95049
2018-04-02T12:12:47.835Z,95044
2018-04-02T12:15:17.052Z,95037
2018-04-02T12:17:46.359Z,95046
2018-04-02T12:20:15.576Z,95042
2018-04-02T12:22:45.391Z,95037
2018-04-02T12:25:14.646Z,95034
2018-04-02T12:27:44.011Z,95024
2018-04-02T12:30:13.078Z,95022
2018-04-02T12:32:42.178Z,95028
2018-04-02T12:35:11.252Z,95004
2018-04-02T12:37:40.273Z,95007
2018-04-02T12:40:09.334Z,95016
2018-04-02T12:42:38.350Z,94996
2018-04-02T12:45:07.430Z,94999
2018-04-02T12:47:36.498Z,94988
2018-04-02T12:50:05.538Z,94995
2018-04-02T12:52:34.604Z,94992
2018-04-02T12:55:03.719Z,94985
2018-04-02T12:57:32.730Z,94994
2018-04-02T13:00:01.782Z,94991
2018-04-02T13:02:33.780Z,94980
2018-04-02T13:05:03.057Z,94980
2018-04-02T13:07:32.142Z,94967
2018-04-02T13:10:01.191Z,94965
2018-04-02T13:12:30.234Z,94962
2018-04-02T13:17:34.521Z,94959
2018-04-02T13:20:03.582Z,94960
2018-04-02T13:22:32.652Z,94964
2018-04-02T13:25:50.403Z,94949
2018-04-02T13:28:24.462Z,94960
2018-04-02T13:30:54.288Z,94953
2018-04-02T13:33:23.332Z,94935
2018-04-02T13:35:52.344Z,94941
2018-04-02T13:38:21.400Z,94946
2018-04-02T13:40:50.414Z,94939
2018-04-02T13:43:19.473Z,94939
2018-04-02T13:45:48.627Z,94937
2018-04-02T13:48:17.651Z,94926
2018-04-02T13:50:47.495Z,94923
2018-04-02T13:53:16.509Z,94919
2018-04-02T13:55:45.512Z,94938
2018-04-02T13:58:14.556Z,94933
2018-04-02T14:00:43.594Z,94923
2018-04-02T14:03:12.641Z,94926
2018-04-02T14:05:41.683Z,94920
2018-04-02T14:08:10.776Z,94917
2018-04-02T14:10:39.792Z,94914
2018-04-02T14:13:08.854Z,94923
2018-04-02T14:15:37.909Z,94920
2018-04-02T14:18:06.958Z,94911
2018-04-02T14:20:35.988Z,94901
2018-04-02T14:23:05.040Z,94895
2018-04-02T14:25:34.052Z,94904
2018-04-02T14:28:03.121Z,94897
2018-04-02T14:30:32.137Z,94889
2018-04-02T14:33:01.205Z,94905
2018-04-02T14:35:30.265Z,94894
2018-04-02T14:37:59.289Z,94899
2018-04-02T14:40:28.919Z,94892
2018-04-02T14:42:57.962Z,94882
2018-04-02T14:45:27.013Z,94881
2018-04-02T14:47:56.111Z,94879
2018-04-02T14:50:25.130Z,94878
2018-04-02T14:52:54.195Z,94888
2018-04-02T14:55:23.219Z,94904
2018-04-02T14:57:52.291Z,94892
2018-04-02T15:00:21.335Z,94889
2018-04-02T15:02:50.429Z,94882
2018-04-02T15:05:19.447Z,94879
2018-04-02T15:07:48.471Z,94876
2018-04-02T15:10:17.558Z,94869
2018-04-02T15:12:46.566Z,94872
2018-04-02T15:15:15.600Z,94863
2018-04-02T15:17:44.636Z,94854
2018-04-02T15:20:13.715Z,94860
2018-04-02T15:22:42.991Z,94848
2018-04-02T15:25:12.134Z,94854
2018-04-02T15:27:41.470Z,94845
2018-04-02T15:30:11.885Z,94846
2018-04-02T15:32:43.009Z,94835
2018-04-02T15:35:12.940Z,94829
2018-04-02T15:37:42.047Z,94820
2018-04-02T15:40:12.583Z,94830
2018-04-02T15:42:42.083Z,94829
2018-04-02T15:45:11.116Z,94832
2018-04-02T15:47:40.129Z,94831
2018-04-02T15:50:09.379Z,94826
2018-04-02T15:52:38.647Z,94831
2018-04-02T15:55:09.415Z,94836
2018-04-02T15:57:39.009Z,94829
2018-04-02T16:00:08.089Z,94822
2018-04-02T16:02:37.162Z,94819
2018-04-02T16:05:06.474Z,94821
2018-04-02T16:07:38.119Z,94826
2018-04-02T16:10:08.434Z,94813
2018-04-02T16:12:37.639Z,94810
2018-04-02T16:15:06.656Z,94816
2018-04-02T16:17:36.750Z,94806
2018-04-02T16:20:05.812Z,94803
2018-04-02T16:22:34.862Z,94795
2018-04-02T16:25:05.114Z,94802
2018-04-02T16:27:34.176Z,94784
2018-04-02T16:30:03.963Z,94783
2018-04-02T16:32:33.018Z,94785
2018-04-02T16:35:02.029Z,94791
2018-04-02T16:37:31.095Z,94794
2018-04-02T16:40:00.120Z,94786
2018-04-02T16:42:29.357Z,94793
2018-04-02T16:44:59.132Z,94791
2018-04-02T16:47:28.166Z,94790
2018-04-02T16:49:58.273Z,94788
2018-04-02T16:52:27.309Z,94792
2018-04-02T16:54:56.473Z,94795
2018-04-02T16:57:25.545Z,94795
2018-04-02T16:59:54.638Z,94796
2018-04-02T17:02:23.676Z,94793
2018-04-02T17:04:52.735Z,94781
2018-04-02T17:07:21.764Z,94782
2018-04-02T17:09:50.830Z,94784
2018-04-02T17:12:19.846Z,94794
2018-04-02T17:14:48.862Z,94789
2018-04-02T17:17:17.962Z,94793
2018-04-02T17:19:47.004Z,94794
2018-04-02T17:22:16.036Z,94794
2018-04-02T17:24:45.206Z,94794
2018-04-02T17:27:14.225Z,94798
2018-04-02T17:29:43.266Z,94794
2018-04-02T17:32:12.544Z,94789
2018-04-02T17:34:41.563Z,94791
2018-04-02T17:37:10.652Z,94795
2018-04-02T17:39:39.697Z,94789
2018-04-02T17:42:08.784Z,94782
2018-04-02T17:44:37.821Z,94791
2018-04-02T17:47:06.903Z,94795
2018-04-02T17:49:36.298Z,94786
2018-04-02T17:52:05.415Z,94789
2018-04-02T17:54:34.435Z,94788
2018-04-02T17:57:03.681Z,94794
2018-04-02T17:59:32.702Z,94793
2018-04-02T18:02:01.820Z,94791
2018-04-02T18:04:30.951Z,94801
2018-04-02T18:07:01.667Z,94803
2018-04-02T18:09:31.668Z,94790
2018-04-02T18:12:01.470Z,94787
2018-04-02T18:14:30.590Z,94788
2018-04-02T18:16:59.777Z,94783
2018-04-02T18:19:29.553Z,94794
2018-04-02T18:21:58.676Z,94780
2018-04-02T18:24:27.702Z,94784
2018-04-02T18:26:56.758Z,94780
2018-04-02T18:29:26.590Z,94790
2018-04-02T18:31:55.650Z,94794
2018-04-02T18:34:24.723Z,94789
2018-04-02T18:36:53.773Z,94792
2018-04-02T18:39:22.822Z,94786
2018-04-02T18:41:51.942Z,94799
2018-04-02T18:44:21.739Z,94794
2018-04-02T18:46:50.745Z,94796
2018-04-02T18:49:20.841Z,94801
2018-04-02T18:51:50.846Z,94771
2018-04-02T18:54:20.052Z,94736
2018-04-02T18:56:49.183Z,94729
2018-04-02T18:59:18.982Z,94749
2018-04-02T19:01:51.955Z,94737
2018-04-02T19:04:21.114Z,94709
2018-04-02T19:06:50.150Z,94688
2018-04-02T19:09:19.579Z,94698
2018-04-02T19:11:49.501Z,94715
2018-04-02T19:14:18.590Z,94707
2018-04-02T19:16:47.655Z,94724
2018-04-02T19:19:16.682Z,94746
2018-04-02T19:21:45.926Z,94755
2018-04-02T19:24:14.998Z,94747
2018-04-02T19:26:44.062Z,94741
2018-04-02T19:29:13.214Z,94755
2018-04-02T19:31:42.533Z,94764
2018-04-02T19:34:11.958Z,94742
2018-04-02T19:36:40.998Z,94741
2018-04-02T19:39:11.904Z,94745
2018-04-02T19:41:41.422Z,94746
2018-04-02T19:44:10.483Z,94745
2018-04-02T19:46:39.641Z,94753
2018-04-02T19:49:08.697Z,94745
2018-04-02T19:51:38.625Z,94759
2018-04-02T19:54:07.722Z,94755
2018-04-02T19:56:36.777Z,94763
2018-04-02T19:59:06.563Z,94763
2018-04-02T20:01:35.622Z,94768
2018-04-02T20:04:04.644Z,94772
2018-04-02T20:06:33.696Z,94771
2018-04-02T20:09:02.710Z,94764
2018-04-02T20:11:31.871Z,94765
2018-04-02T20:14:01.250Z,94755
2018-04-02T20:16:30.422Z,94762
2018-04-02T20:18:59.467Z,94756
2018-04-02T20:21:28.509Z,94755
2018-04-02T20:23:57.559Z,94760
2018-04-02T20:26:26.643Z,94758
2018-04-02T20:28:55.668Z,94755
2018-04-02T20:31:24.878Z,94759
2018-04-02T20:33:53.894Z,94747
2018-04-02T20:36:22.918Z,94735
2018-04-02T20:38:51.979Z,94735
2018-04-02T20:41:21.010Z,94735
2018-04-02T20:43:50.110Z,94742
2018-04-02T20:46:19.145Z,94729
2018-04-02T20:48:48.157Z,94729
2018-04-02T20:51:17.977Z,94730
2018-04-02T20:53:47.024Z,94726
2018-04-02T20:56:16.050Z,94726
2018-04-02T20:58:45.162Z,94723
2018-04-02T21:01:14.145Z,94736
2018-04-02T21:03:43.206Z,94729
2018-04-02T21:06:12.218Z,94726
2018-04-02T21:08:41.291Z,94728
2018-04-02T21:11:10.312Z,94718
2018-04-02T21:13:39.326Z,94715
2018-04-02T21:16:08.364Z,94721
2018-04-02T21:18:37.390Z,94714
2018-04-02T21:21:06.445Z,94727
2018-04-02T21:23:36.402Z,94721
2018-04-02T21:26:05.421Z,94720
2018-04-02T21:28:34.488Z,94721
2018-04-02T21:31:03.497Z,94621
2018-04-02T21:33:33.438Z,94733
2018-04-02T21:36:02.486Z,94719
2018-04-02T21:38:31.548Z,94722
2018-04-02T21:41:00.558Z,94720
2018-04-02T21:43:29.665Z,94719
2018-04-02T21:45:59.597Z,94727
2018-04-02T21:48:28.600Z,94722
2018-04-02T21:50:57.673Z,94724
2018-04-02T21:53:26.694Z,94727
2018-04-02T21:55:55.730Z,94722
2018-04-02T21:58:24.789Z,94725
2018-04-02T22:00:53.845Z,94733
2018-04-02T22:03:22.862Z,94726
2018-04-02T22:05:51.902Z,94737
2018-04-02T22:08:20.921Z,94726
2018-04-02T22:10:50.023Z,94713
2018-04-02T22:13:19.047Z,94729
2018-04-02T22:15:48.061Z,94724
2018-04-02T22:18:17.134Z,94735
2018-04-02T22:20:46.170Z,94720
2018-04-02T22:23:15.171Z,94732
2018-04-02T22:25:44.226Z,94744
2018-04-02T22:28:16.878Z,94740
2018-04-02T22:30:45.940Z,94737
2018-04-02T22:33:15.007Z,94739
2018-04-02T22:35:44.047Z,94750
2018-04-02T22:38:13.880Z,94762
2018-04-02T22:40:42.903Z,94752
2018-04-02T22:43:11.959Z,94755
2018-04-02T22:45:40.982Z,94747
2018-04-02T22:48:10.054Z,94726
2018-04-02T22:50:39.628Z,94609
2018-04-02T22:53:08.706Z,94718
2018-04-02T22:55:37.760Z,94649
2018-04-02T22:58:07.025Z,94731
2018-04-02T23:00:36.113Z,94729
2018-04-02T23:03:05.229Z,94729
2018-04-02T23:05:34.286Z,94727
2018-04-02T23:08:03.344Z,94725
2018-04-02T23:10:32.357Z,94722
2018-04-02T23:13:01.447Z,94717
2018-04-02T23:15:30.471Z,94721
2018-04-02T23:17:59.536Z,94718
2018-04-02T23:20:28.542Z,94726
2018-04-02T23:22:57.610Z,94714
2018-04-02T23:25:26.671Z,94709
2018-04-02T23:27:55.798Z,94715
2018-04-02T23:30:25.074Z,94705
2018-04-02T23:32:54.234Z,94701
2018-04-02T23:35:23.400Z,94703
2018-04-02T23:37:53.434Z,94700
2018-04-02T23:40:22.448Z,94702
2018-04-02T23:42:51.505Z,94701
2018-04-02T23:45:20.574Z,94701
2018-04-02T23:47:49.799Z,94695
2018-04-02T23:50:19.046Z,94707
2018-04-02T23:52:48.237Z,94706
2018-04-02T23:55:17.242Z,94700
2018-04-02T23:57:46.571Z,94699
